Time;durP1;ratioP1;P1;durP2;ratioP2;P2;SDS_P1;SDS_P2;PMS_P1;PMS_P2;Temp;Humidity;BMP_temperature;BMP_pressure;BME280_temperature;BME280_humidity;BME280_pressure;Samples;Min_cycle;Max_cycle;Signal;HPM_P1;HPM_P2
2022/01/23 00:00:18;;;;;;;48.07;24.87;;;;;;;-145.18;100.00;46658.44;4990558;28;20775;-74
2022/01/23 00:02:48;;;;;;;47.87;23.57;;;;;;;-145.18;100.00;46660.41;4990409;28;20355;-74
2022/01/23 00:05:14;;;;;;;41.47;22.30;;;;;;;-145.18;100.00;46660.41;4990574;28;20288;-74
2022/01/23 00:07:40;;;;;;;40.00;21.87;;;;;;;-145.18;100.00;46652.59;4989802;28;20312;-73
2022/01/23 00:10:07;;;;;;;45.17;23.27;;;;;;;-145.18;100.00;46658.44;4990034;28;20292;-74
2022/01/23 00:12:39;;;;;;;41.90;23.17;;;;;;;-145.18;100.00;46660.41;4989978;28;20339;-73
2022/01/23 00:17:48;;;;;;;44.10;23.33;;;;;;;-145.18;100.00;46654.53;4989834;28;20334;-76
2022/01/23 00:20:14;;;;;;;42.03;22.37;;;;;;;-145.18;100.00;46658.44;4956749;28;20280;-74
2022/01/23 00:30:35;;;;;;;47.23;21.50;;;;;;;-145.18;100.00;46660.41;4990276;28;20273;-76
2022/01/23 00:33:03;;;;;;;43.90;22.73;;;;;;;-145.18;100.00;46660.41;4989589;28;20808;-75
2022/01/23 00:35:30;;;;;;;42.57;21.97;;;;;;;-145.18;100.00;46660.41;4990081;28;20042;-73
2022/01/23 00:37:57;;;;;;;43.33;22.73;;;;;;;-145.18;100.00;46660.41;5004457;28;20363;-76
2022/01/23 00:40:24;;;;;;;42.77;23.60;;;;;;;-145.18;100.00;46660.41;4989658;28;20371;-76
2022/01/23 00:42:49;;;;;;;47.53;23.30;;;;;;;-145.18;100.00;46660.41;4989205;28;20372;-76
2022/01/23 00:45:35;;;;;;;43.37;22.13;;;;;;;-145.18;100.00;46654.53;4989627;28;20744;-76
2022/01/23 00:48:06;;;;;;;37.88;20.67;;;;;;;-145.18;100.00;46660.41;4971999;28;20038;-73
2022/01/23 00:50:35;;;;;;;40.57;21.10;;;;;;;-145.18;100.00;46660.41;4989372;28;20042;-73
2022/01/23 00:53:01;;;;;;;43.47;20.70;;;;;;;-145.18;100.00;46660.41;4989295;28;20295;-73
2022/01/23 00:55:26;;;;;;;42.93;22.17;;;;;;;-145.18;100.00;46660.41;4971943;28;20288;-73
2022/01/23 00:57:52;;;;;;;46.67;21.17;;;;;;;-145.18;100.00;46660.41;4989343;28;20276;-73
2022/01/23 01:00:18;;;;;;;39.57;20.80;;;;;;;-145.18;100.00;46660.41;4989603;28;20112;-74
2022/01/23 01:02:43;;;;;;;38.27;20.83;;;;;;;-145.18;100.00;46660.41;4989745;28;20403;-73
2022/01/23 01:05:10;;;;;;;41.97;21.40;;;;;;;-145.18;100.00;46660.41;4989094;28;20129;-73
2022/01/23 01:07:35;;;;;;;39.33;21.13;;;;;;;-145.18;100.00;46660.41;4988689;28;20053;-73
2022/01/23 01:10:07;;;;;;;40.80;20.90;;;;;;;-145.18;100.00;46660.41;4972058;28;20260;-73
2022/01/23 01:12:40;;;;;;;43.87;21.00;;;;;;;-145.18;100.00;46660.41;4988956;28;20181;-73
2022/01/23 01:15:27;;;;;;;37.57;20.87;;;;;;;-145.18;100.00;46660.41;4988908;28;20284;-73
2022/01/23 01:31:30;;;;;;;41.97;20.63;;;;;;;-145.18;100.00;46660.41;4988240;28;20632;-75
2022/01/23 01:34:24;;;;;;;44.13;20.27;;;;;;;-145.18;100.00;46660.41;4973528;28;20275;-75
2022/01/23 01:36:50;;;;;;;40.35;20.58;;;;;;;-145.18;100.00;46660.41;4987929;28;20374;-75
2022/01/23 01:39:18;;;;;;;37.33;19.37;;;;;;;-145.18;100.00;46658.44;4971595;28;20045;-75
2022/01/23 01:41:44;;;;;;;35.17;17.73;;;;;;;-145.18;100.00;46660.41;4988267;28;20268;-75
2022/01/23 01:44:11;;;;;;;36.20;18.53;;;;;;;-145.18;100.00;46660.41;4988439;28;20268;-76
2022/01/23 01:46:36;;;;;;;38.17;19.37;;;;;;;-145.18;100.00;46660.41;4987998;28;20276;-73
2022/01/23 01:49:02;;;;;;;37.27;19.60;;;;;;;-145.18;100.00;46658.44;4971170;28;20317;-74
2022/01/23 01:51:31;;;;;;;42.17;19.67;;;;;;;-145.18;100.00;46660.41;4970676;28;20128;-74
2022/01/23 01:54:05;;;;;;;39.03;19.67;;;;;;;-145.18;100.00;46660.41;4970864;28;20038;-74
2022/01/23 01:56:36;;;;;;;45.53;21.77;;;;;;;-145.18;100.00;46656.50;4988232;28;20302;-74
2022/01/23 02:09:31;;;;;;;34.93;18.17;;;;;;;-145.18;100.00;46660.41;4988271;28;20049;-74
2022/01/23 02:14:56;;;;;;;36.70;18.75;;;;;;;-145.18;100.00;46660.41;4988420;28;20304;-73
2022/01/23 02:55:38;;;;;;;31.63;18.10;;;;;;;-145.18;100.00;46660.41;4968451;28;20280;-74
2022/01/23 02:58:06;;;;;;;38.50;18.93;;;;;;;-145.18;100.00;46660.41;4967652;28;20279;-73
2022/01/23 03:03:21;;;;;;;35.37;18.77;;;;;;;-145.18;100.00;46660.41;4984007;23;20276;-73
2022/01/23 03:05:58;;;;;;;37.90;18.73;;;;;;;-145.18;100.00;46660.41;5000087;28;20475;-74
2022/01/23 03:08:32;;;;;;;34.47;17.80;;;;;;;-145.18;100.00;46660.41;5014073;28;20405;-73
2022/01/23 03:11:05;;;;;;;31.50;17.20;;;;;;;-145.18;100.00;46660.41;5012537;28;20604;-73
2022/01/23 03:13:56;;;;;;;33.13;17.90;;;;;;;-145.18;100.00;46660.41;5030185;28;20278;-73
2022/01/23 03:34:59;;;;;;;31.90;16.90;;;;;;;-145.18;100.00;46660.41;4975266;28;20414;-73
2022/01/23 03:37:25;;;;;;;31.13;16.40;;;;;;;-145.18;100.00;46660.41;4990270;28;20372;-73
2022/01/23 03:39:50;;;;;;;36.93;17.63;;;;;;;-145.18;100.00;46660.41;4990289;28;20751;-73
2022/01/23 03:42:16;;;;;;;36.60;16.40;;;;;;;-145.18;100.00;46660.41;4990389;28;20034;-73
2022/01/23 03:44:52;;;;;;;32.63;18.60;;;;;;;-145.18;100.00;46660.41;4990657;28;20049;-73
2022/01/23 03:47:32;;;;;;;32.97;17.33;;;;;;;-145.18;100.00;46660.41;4990440;28;20143;-74
2022/01/23 03:49:57;;;;;;;35.23;18.17;;;;;;;-145.18;100.00;46660.41;4990464;28;20331;-73
2022/01/23 03:52:24;;;;;;;33.10;17.20;;;;;;;-145.18;100.00;46660.41;4972655;28;20291;-73
2022/01/23 03:54:49;;;;;;;33.47;17.10;;;;;;;-145.18;100.00;46658.44;4990430;28;20074;-74
2022/01/23 03:57:15;;;;;;;40.37;17.23;;;;;;;-145.18;100.00;46660.41;4989889;28;20740;-74
2022/01/23 03:59:40;;;;;;;29.10;17.43;;;;;;;-145.18;100.00;46660.41;4990396;28;20085;-74
2022/01/23 04:02:06;;;;;;;33.00;18.03;;;;;;;-145.18;100.00;46660.41;4990180;28;20041;-74
2022/01/23 04:07:06;;;;;;;43.93;18.93;;;;;;;-145.18;100.00;46654.53;4989919;28;20096;-74
2022/01/23 04:09:32;;;;;;;32.57;16.97;;;;;;;-145.18;100.00;46660.41;4989981;28;20283;-74
2022/01/23 04:11:58;;;;;;;32.13;17.00;;;;;;;-145.18;100.00;46660.41;4989431;28;20272;-73
2022/01/23 04:14:25;;;;;;;31.63;17.27;;;;;;;-145.18;100.00;46660.41;4990046;28;20038;-74
2022/01/23 04:19:42;;;;;;;35.73;17.80;;;;;;;-145.18;100.00;46660.41;4989729;28;20279;-73
2022/01/23 05:00:14;;;;;;;32.47;17.43;;;;;;;-145.18;100.00;46660.41;4989480;28;20432;-73
2022/01/23 05:05:30;;;;;;;32.90;18.17;;;;;;;-145.18;100.00;46660.41;4989543;28;20072;-73
2022/01/23 05:07:56;;;;;;;33.37;19.37;;;;;;;-145.18;100.00;46660.41;4988731;28;20855;-74
2022/01/23 05:10:22;;;;;;;32.97;17.97;;;;;;;-145.18;100.00;46660.41;4989299;28;20314;-74
2022/01/23 05:12:47;;;;;;;39.23;20.43;;;;;;;-145.18;100.00;46660.41;4987954;28;20268;-73
2022/01/23 05:15:13;;;;;;;43.03;19.80;;;;;;;-145.18;100.00;46660.41;4989148;28;20069;-74
2022/01/23 05:17:39;;;;;;;37.43;19.40;;;;;;;-145.18;100.00;46660.41;4987976;28;20074;-74
2022/01/23 05:20:06;;;;;;;40.67;20.53;;;;;;;-145.18;100.00;46660.41;4989360;28;20096;-74
2022/01/23 05:22:52;;;;;;;37.77;18.97;;;;;;;-145.18;100.00;46660.41;4988942;28;20042;-73
2022/01/23 05:25:25;;;;;;;37.77;18.23;;;;;;;-145.18;100.00;46660.41;4989189;28;20268;-73
2022/01/23 05:27:52;;;;;;;36.73;18.30;;;;;;;-145.18;100.00;46660.41;4988159;28;20271;-73
2022/01/23 05:30:18;;;;;;;36.57;19.50;;;;;;;-145.18;100.00;46660.41;4988384;28;20280;-74
2022/01/23 05:32:43;;;;;;;42.70;20.93;;;;;;;-145.18;100.00;46660.41;4986520;28;20311;-73
2022/01/23 05:35:11;;;;;;;42.23;20.43;;;;;;;-145.18;100.00;46660.41;4988880;28;20089;-73
2022/01/23 05:37:37;;;;;;;36.80;20.47;;;;;;;-145.18;100.00;46656.50;4987918;28;20121;-73
2022/01/23 05:40:05;;;;;;;39.93;19.97;;;;;;;-145.18;100.00;46658.44;4988383;28;20314;-74
2022/01/23 05:42:30;;;;;;;36.80;18.57;;;;;;;-145.18;100.00;46660.41;4988292;28;20041;-74
2022/01/23 05:44:56;;;;;;;39.20;20.27;;;;;;;-145.18;100.00;46660.41;4988712;28;20280;-74
2022/01/23 05:47:21;;;;;;;41.27;21.27;;;;;;;-145.18;100.00;46660.41;4988366;28;20043;-74
2022/01/23 05:49:47;;;;;;;38.00;20.73;;;;;;;-145.18;100.00;46656.50;4988105;28;20096;-73
2022/01/23 05:52:12;;;;;;;37.37;19.27;;;;;;;-145.18;100.00;46658.44;4987733;28;20727;-73
2022/01/23 05:54:38;;;;;;;36.07;18.53;;;;;;;-145.18;100.00;46656.50;4987982;28;20042;-73
2022/01/23 05:57:03;;;;;;;36.90;18.97;;;;;;;-145.18;100.00;46660.41;4987599;28;20451;-74
2022/01/23 05:59:29;;;;;;;40.90;19.23;;;;;;;-145.18;100.00;46660.41;4988814;28;20068;-73
2022/01/23 06:01:55;;;;;;;40.63;19.77;;;;;;;-145.18;100.00;46658.44;4987734;28;20137;-73
2022/01/23 06:04:22;;;;;;;38.47;20.20;;;;;;;-145.18;100.00;46658.44;4987129;28;20525;-73
2022/01/23 06:06:48;;;;;;;43.47;20.77;;;;;;;-145.18;100.00;46660.41;4987633;28;21023;-73
2022/01/23 06:09:14;;;;;;;41.97;19.87;;;;;;;-145.18;100.00;46660.41;4986042;28;20772;-73
2022/01/23 06:11:40;;;;;;;40.00;20.33;;;;;;;-145.18;100.00;46654.53;4987846;28;20355;-74
2022/01/23 06:14:08;;;;;;;40.97;19.83;;;;;;;-145.18;100.00;46660.41;4987852;28;20046;-73
2022/01/23 06:16:34;;;;;;;38.03;19.90;;;;;;;-145.18;100.00;46658.44;4988091;28;20497;-73
2022/01/23 06:19:00;;;;;;;41.97;20.80;;;;;;;-145.18;100.00;46656.50;4987350;28;20287;-73
2022/01/23 06:21:26;;;;;;;44.07;20.80;;;;;;;-145.18;100.00;46660.41;4987622;28;20765;-73
2022/01/23 06:24:02;;;;;;;39.97;19.53;;;;;;;-145.18;100.00;46656.50;4987241;28;20051;-74
2022/01/23 06:26:43;;;;;;;36.97;20.25;;;;;;;-145.18;100.00;46656.50;4987808;28;20287;-74
2022/01/23 06:29:09;;;;;;;37.03;20.77;;;;;;;-145.18;100.00;46660.41;4986208;28;20069;-73
2022/01/23 06:31:35;;;;;;;42.93;21.00;;;;;;;-145.18;100.00;46658.44;4987722;28;20653;-74
2022/01/23 06:34:01;;;;;;;39.80;20.63;;;;;;;-145.18;100.00;46658.44;4986766;28;20273;-74
2022/01/23 06:36:26;;;;;;;45.47;21.40;;;;;;;-145.18;100.00;46660.41;4987853;28;20129;-74
2022/01/23 06:38:52;;;;;;;53.13;21.70;;;;;;;-145.18;100.00;46656.50;4986877;28;20384;-74
2022/01/23 06:41:17;;;;;;;48.17;20.13;;;;;;;-145.18;100.00;46660.41;4987078;28;20499;-74
2022/01/23 06:43:42;;;;;;;45.37;20.87;;;;;;;-145.18;100.00;46660.41;4987744;28;20088;-73
2022/01/23 06:46:08;;;;;;;53.27;31.63;;;;;;;-145.18;100.00;46660.41;4987346;28;20437;-73
2022/01/23 06:48:33;;;;;;;49.20;25.77;;;;;;;-145.18;100.00;46658.44;4987180;28;20080;-73
2022/01/23 06:50:59;;;;;;;48.70;25.70;;;;;;;-145.18;100.00;46660.41;4987220;28;20077;-74
2022/01/23 06:53:24;;;;;;;48.33;25.13;;;;;;;-145.18;100.00;46660.41;4987091;28;20491;-74
2022/01/23 06:55:49;;;;;;;52.83;25.83;;;;;;;-145.18;100.00;46660.41;4987964;28;20043;-73
2022/01/23 06:58:15;;;;;;;52.17;24.17;;;;;;;-145.18;100.00;46660.41;4986527;28;20034;-73
2022/01/23 07:00:40;;;;;;;43.63;21.37;;;;;;;-145.18;100.00;46660.41;4987593;28;20045;-74
2022/01/23 07:03:05;;;;;;;44.50;24.23;;;;;;;-145.18;100.00;46660.41;4986228;28;20046;-74
2022/01/23 07:05:31;;;;;;;41.90;20.70;;;;;;;-145.18;100.00;46656.50;4987484;28;20055;-73
2022/01/23 07:07:56;;;;;;;40.37;20.27;;;;;;;-145.18;100.00;46660.41;4986581;28;20745;-74
2022/01/23 07:10:23;;;;;;;60.03;33.23;;;;;;;-145.18;100.00;46658.44;4992447;28;20439;-73
2022/01/23 07:12:49;;;;;;;75.07;42.70;;;;;;;-145.18;100.00;46656.50;4995010;28;20046;-73
2022/01/23 07:15:15;;;;;;;62.00;31.77;;;;;;;-145.18;100.00;46660.41;5002441;28;20366;-73
2022/01/23 07:17:41;;;;;;;56.67;23.67;;;;;;;-145.18;100.00;46660.41;4994610;28;20128;-73
2022/01/23 07:20:07;;;;;;;45.97;23.83;;;;;;;-145.18;100.00;46660.41;4995445;28;20777;-73
2022/01/23 07:22:32;;;;;;;49.70;23.30;;;;;;;-145.18;100.00;46660.41;4991194;28;20282;-73
2022/01/23 07:25:02;;;;;;;45.73;21.27;;;;;;;-145.18;100.00;46652.59;4986969;28;20042;-74
2022/01/23 07:27:33;;;;;;;36.77;19.80;;;;;;;-145.18;100.00;46660.41;4987396;28;20112;-73
2022/01/23 07:29:58;;;;;;;38.93;19.70;;;;;;;-145.18;100.00;46658.44;4989317;28;20363;-74
2022/01/23 07:32:23;;;;;;;37.40;18.77;;;;;;;-145.18;100.00;46658.44;4986592;28;20364;-73
2022/01/23 07:34:49;;;;;;;36.80;19.13;;;;;;;-145.18;100.00;46660.41;5005556;28;20046;-73
2022/01/23 07:37:15;;;;;;;37.37;19.93;;;;;;;-145.18;100.00;46658.44;5006584;28;20038;-74
2022/01/23 07:39:40;;;;;;;37.73;21.53;;;;;;;-145.18;100.00;46660.41;5006426;28;20042;-74
2022/01/23 07:42:07;;;;;;;34.87;19.73;;;;;;;-145.18;100.00;46658.44;5007436;28;20271;-73
2022/01/23 07:44:32;;;;;;;44.90;22.43;;;;;;;-145.18;100.00;46660.41;5006251;28;20046;-73
2022/01/23 07:46:57;;;;;;;43.43;20.83;;;;;;;-145.18;100.00;46660.41;5006304;28;20299;-74
2022/01/23 07:49:23;;;;;;;48.37;22.17;;;;;;;-145.18;100.00;46658.44;5005998;28;20042;-73
2022/01/23 07:51:49;;;;;;;48.20;22.70;;;;;;;-145.18;100.00;46658.44;4989919;28;20045;-73
2022/01/23 07:54:15;;;;;;;43.23;21.27;;;;;;;-145.18;100.00;46660.41;5009445;28;20494;-73
2022/01/23 07:56:42;;;;;;;40.33;20.73;;;;;;;-145.18;100.00;46660.41;4992951;28;20290;-73
2022/01/23 07:59:10;;;;;;;41.10;20.67;;;;;;;-145.18;100.00;46660.41;4992331;28;20120;-73
2022/01/23 08:01:39;;;;;;;42.37;22.70;;;;;;;-145.18;100.00;46660.41;5009066;28;20283;-73
2022/01/23 08:04:06;;;;;;;44.47;22.13;;;;;;;-145.18;100.00;46660.41;5009189;28;20286;-73
2022/01/23 08:06:33;;;;;;;43.50;21.20;;;;;;;-145.18;100.00;46660.41;5009846;28;20291;-73
2022/01/23 08:08:59;;;;;;;44.23;19.77;;;;;;;-145.18;100.00;46660.41;4975647;28;20278;-73
2022/01/23 08:11:24;;;;;;;43.47;21.23;;;;;;;-145.18;100.00;46660.41;5009444;28;20342;-73
2022/01/23 08:13:50;;;;;;;44.47;22.00;;;;;;;-145.18;100.00;46660.41;5008995;28;20049;-74
2022/01/23 08:16:15;;;;;;;39.87;21.37;;;;;;;-145.18;100.00;46660.41;5010172;28;20046;-73
2022/01/23 08:18:41;;;;;;;44.77;22.30;;;;;;;-145.18;100.00;46660.41;4991555;28;20041;-73
2022/01/23 08:21:07;;;;;;;46.40;22.27;;;;;;;-145.18;100.00;46656.50;4992216;28;20069;-73
2022/01/23 08:23:33;;;;;;;39.40;21.23;;;;;;;-145.18;100.00;46660.41;5008489;28;20318;-73
2022/01/23 08:25:58;;;;;;;40.77;21.37;;;;;;;-145.18;100.00;46660.41;5009279;28;20300;-73
2022/01/23 08:28:24;;;;;;;45.97;23.60;;;;;;;-145.18;100.00;46660.41;5006076;28;20124;-74
2022/01/23 08:30:49;;;;;;;48.73;22.67;;;;;;;-145.18;100.00;46660.41;5008519;28;20042;-73
2022/01/23 08:33:15;;;;;;;43.00;21.80;;;;;;;-145.18;100.00;46658.44;5007022;28;20042;-73
2022/01/23 08:35:43;;;;;;;39.20;20.93;;;;;;;-145.18;100.00;46658.44;5007756;28;20042;-73
2022/01/23 08:38:09;;;;;;;39.63;22.37;;;;;;;-145.18;100.00;46654.53;5008737;28;20038;-73
2022/01/23 08:43:10;;;;;;;45.03;22.57;;;;;;;-145.18;100.00;46658.44;5008908;28;20034;-73
2022/01/23 08:45:35;;;;;;;40.43;21.77;;;;;;;-145.18;100.00;46658.44;5008845;28;20275;-74
2022/01/23 08:48:01;;;;;;;44.00;22.47;;;;;;;-145.18;100.00;46654.53;4990923;28;20274;-73
2022/01/23 08:50:26;;;;;;;48.90;23.57;;;;;;;-145.18;100.00;46660.41;5009064;28;20049;-74
2022/01/23 08:52:52;;;;;;;42.93;21.50;;;;;;;-145.18;100.00;46654.53;5008898;28;20041;-73
2022/01/23 08:55:19;;;;;;;44.53;23.07;;;;;;;-145.18;100.00;46656.50;4991324;28;20042;-73
2022/01/23 08:57:45;;;;;;;42.20;22.17;;;;;;;-145.18;100.00;46660.41;5008315;28;20037;-73
2022/01/23 09:00:10;;;;;;;43.90;23.43;;;;;;;-145.18;100.00;46654.53;5008813;28;20279;-73
2022/01/23 09:02:36;;;;;;;42.17;23.20;;;;;;;-145.18;100.00;46654.53;4990494;28;20512;-73
2022/01/23 09:05:01;;;;;;;49.57;24.07;;;;;;;-145.18;100.00;46642.81;4991145;28;20041;-73
2022/01/23 09:07:27;;;;;;;44.70;23.67;;;;;;;-145.18;100.00;46652.59;4991822;28;20125;-73
2022/01/23 09:10:00;;;;;;;40.77;22.97;;;;;;;-145.18;100.00;46640.88;5007647;28;20042;-73
2022/01/23 09:14:51;;;;;;;44.23;22.80;;;;;;;-145.18;100.00;46642.81;5007859;28;20275;-73
2022/01/23 09:17:16;;;;;;;40.97;22.77;;;;;;;-145.18;100.00;46654.53;4991106;28;20034;-73
2022/01/23 09:19:45;;;;;;;52.80;24.77;;;;;;;-145.18;100.00;46638.91;5007347;28;20042;-73
2022/01/23 09:22:11;;;;;;;44.90;24.03;;;;;;;-145.18;100.00;46640.88;5008318;28;20042;-74
2022/01/23 09:24:36;;;;;;;47.10;24.37;;;;;;;-145.18;100.00;46650.63;5007755;28;20275;-74
2022/01/23 09:27:04;;;;;;;48.40;24.67;;;;;;;-145.18;100.00;46640.88;5008859;28;20131;-73
2022/01/23 09:29:35;;;;;;;42.33;22.87;;;;;;;-145.18;100.00;46642.81;5007722;28;20041;-73
2022/01/23 09:32:02;;;;;;;45.80;23.20;;;;;;;-145.18;100.00;46638.91;5008003;28;20259;-73
2022/01/23 09:34:31;;;;;;;43.80;23.80;;;;;;;-145.18;100.00;46654.53;4989706;28;20260;-73
2022/01/23 09:37:01;;;;;;;42.57;22.47;;;;;;;-145.18;100.00;46636.94;5007841;28;21882;-73
2022/01/23 09:39:27;;;;;;;42.93;23.23;;;;;;;-145.18;100.00;46638.91;5007753;28;21084;-73
2022/01/23 09:42:23;;;;;;;46.60;25.13;;;;;;;-145.18;100.00;46652.59;5007842;28;20306;-73
2022/01/23 09:45:03;;;;;;;49.70;24.35;;;;;;;-145.18;100.00;46640.88;5002580;28;20042;-73
2022/01/23 09:47:29;;;;;;;48.30;25.20;;;;;;;-145.18;100.00;46650.63;5008355;28;20084;-73
2022/01/23 09:49:57;;;;;;;46.23;25.90;;;;;;;-145.18;100.00;46638.91;5007041;28;20804;-73
2022/01/23 09:52:23;;;;;;;50.73;26.37;;;;;;;-145.18;100.00;46635.00;5008060;28;20272;-73
2022/01/23 09:54:59;;;;;;;50.63;27.27;;;;;;;-145.18;100.00;46640.88;5007104;28;20283;-73
2022/01/23 09:57:28;;;;;;;;;;;;;;;-145.18;100.00;46636.94;5008587;28;20042;-73
2022/01/23 09:59:55;;;;;;;47.90;26.03;;;;;;;-145.18;100.00;46638.91;5007296;28;19991;-73
2022/01/23 10:02:23;;;;;;;49.00;24.57;;;;;;;-145.18;100.00;46638.91;5007797;28;20635;-73
2022/01/23 10:04:49;;;;;;;44.97;25.50;;;;;;;-145.18;100.00;46597.88;5006649;28;20625;-73
2022/01/23 10:07:14;;;;;;;51.90;25.67;;;;;;;-145.18;100.00;46611.56;5007526;28;20775;-73
2022/01/23 10:09:40;;;;;;;46.80;24.07;;;;;;;-145.18;100.00;46609.59;5006969;28;20281;-74
2022/01/23 10:12:08;;;;;;;47.13;24.97;;;;;;;-145.18;100.00;46613.50;5008242;28;20088;-73
2022/01/23 10:14:35;;;;;;;50.73;26.40;;;;;;;-145.18;100.00;46615.47;5006458;28;20640;-73
2022/01/23 10:17:01;;;;;;;51.53;24.93;;;;;;;-145.18;100.00;46609.59;5007538;28;20272;-73
2022/01/23 10:19:26;;;;;;;51.27;24.93;;;;;;;-145.18;100.00;46617.41;5007115;28;20271;-73
2022/01/23 10:21:52;;;;;;;46.10;26.67;;;;;;;-145.18;100.00;46625.22;5007092;28;20053;-73
2022/01/23 10:24:18;;;;;;;47.00;23.80;;;;;;;-145.18;100.00;46619.38;5006621;28;20414;-73
2022/01/23 10:26:47;;;;;;;43.13;23.20;;;;;;;-145.18;100.00;46619.38;5007561;28;20410;-73
2022/01/23 10:29:37;;;;;;;51.53;25.97;;;;;;;-145.18;100.00;46625.22;5007089;28;20053;-73
2022/01/23 10:32:08;;;;;;;44.23;23.90;;;;;;;-145.18;100.00;46631.09;5007679;28;20750;-73
2022/01/23 10:34:49;;;;;;;47.37;23.70;;;;;;;-145.18;100.00;46625.22;5006616;28;20365;-73
2022/01/23 10:37:36;;;;;;;49.70;25.43;;;;;;;-145.18;100.00;46635.00;5007103;28;20287;-73
2022/01/23 10:40:10;;;;;;;45.33;23.97;;;;;;;-145.18;100.00;46636.94;5007018;28;20679;-73
2022/01/23 10:50:49;;;;;;;45.95;25.08;;;;;;;-145.18;100.00;46644.78;5007182;28;20037;-74
2022/01/23 10:53:14;;;;;;;45.80;24.80;;;;;;;-145.18;100.00;46635.00;5006827;28;20053;-74
2022/01/23 10:55:40;;;;;;;43.10;23.20;;;;;;;-145.18;100.00;46646.72;5006143;28;20272;-73
2022/01/23 10:58:18;;;;;;;43.60;24.67;;;;;;;-145.18;100.00;46656.50;4989115;28;20030;-73
2022/01/23 11:00:44;;;;;;;49.13;23.60;;;;;;;-145.18;100.00;46650.63;5006558;28;20033;-73
2022/01/23 11:03:21;;;;;;;48.00;23.43;;;;;;;-145.18;100.00;46650.63;5006579;28;20269;-74
2022/01/23 11:05:48;;;;;;;46.00;24.33;;;;;;;-145.18;100.00;46658.44;5006808;28;20407;-73
2022/01/23 11:08:31;;;;;;;44.63;23.57;;;;;;;-145.18;100.00;46656.50;5006540;28;20311;-73
2022/01/23 11:11:02;;;;;;;42.67;23.17;;;;;;;-145.18;100.00;46658.44;5006507;28;20272;-74
2022/01/23 11:19:35;;;;;;;43.90;24.23;;;;;;;-145.18;100.00;46660.41;4991805;28;20271;-74
2022/01/23 11:22:03;;;;;;;46.60;23.40;;;;;;;-145.18;100.00;46664.31;5006801;28;20274;-73
2022/01/23 11:24:45;;;;;;;47.73;25.10;;;;;;;-145.18;100.00;46660.41;5006240;28;20640;-73
2022/01/23 11:27:12;;;;;;;52.67;25.57;;;;;;;-145.18;100.00;46666.25;5010149;28;20892;-73
2022/01/23 11:29:58;;;;;;;48.50;25.93;;;;;;;-145.18;100.00;46664.31;5009595;28;20398;-73
2022/01/23 11:32:27;;;;;;;44.72;24.75;;;;;;;-145.18;100.00;46658.44;5010670;28;20263;-73
2022/01/23 11:35:04;;;;;;;49.53;25.50;;;;;;;-145.18;100.00;46674.06;4992118;28;20037;-73
2022/01/23 11:37:30;;;;;;;43.80;23.57;;;;;;;-145.18;100.00;46691.66;5010436;28;20807;-73
2022/01/23 11:40:01;;;;;;;45.50;24.20;;;;;;;-145.18;100.00;46677.97;5009520;28;20287;-73
2022/01/23 11:56:35;;;;;;;40.15;21.20;;;;;;;-145.18;100.00;46742.44;5010129;28;20287;-74
2022/01/23 11:59:17;;;;;;;44.17;24.50;;;;;;;-145.18;100.00;46754.16;4992536;28;20422;-73
2022/01/23 12:01:46;;;;;;;38.50;23.07;;;;;;;-145.18;100.00;46734.63;5009740;28;20279;-73
2022/01/23 12:04:34;;;;;;;42.67;23.17;;;;;;;-145.18;100.00;46758.06;5009154;28;20366;-73
2022/01/23 12:07:17;;;;;;;37.80;22.00;;;;;;;-145.18;100.00;46765.88;5009753;28;20279;-73
2022/01/23 12:10:03;;;;;;;42.97;21.53;;;;;;;-145.18;100.00;46791.28;5009191;28;20367;-73
2022/01/23 12:12:39;;;;;;;40.83;22.37;;;;;;;-145.18;100.00;46771.75;5009911;28;20267;-73
2022/01/23 12:18:28;;;;;;;37.70;20.90;;;;;;;-145.18;100.00;46785.41;5009599;28;20344;-73
2022/01/23 12:20:54;;;;;;;35.60;20.03;;;;;;;-145.18;100.00;46820.56;5009236;28;20034;-73
2022/01/23 12:23:19;;;;;;;45.43;20.43;;;;;;;-145.18;100.00;46836.19;5009357;28;20282;-74
2022/01/23 12:25:53;;;;;;;34.80;19.47;;;;;;;-145.18;100.00;46847.91;5009341;28;20559;-73
2022/01/23 12:28:28;;;;;;;32.83;19.30;;;;;;;-145.18;100.00;46857.69;5008843;28;20038;-73
2022/01/23 12:31:14;;;;;;;32.40;19.25;;;;;;;-145.18;100.00;46867.44;5009078;28;20271;-73
2022/01/23 12:33:39;;;;;;;35.50;20.67;;;;;;;-145.18;100.00;46853.78;4997954;28;20033;-73
2022/01/23 12:36:19;;;;;;;31.13;18.67;;;;;;;-145.18;100.00;46885.03;5009380;28;20053;-73
2022/01/23 12:38:51;;;;;;;30.13;18.33;;;;;;;-145.18;100.00;46883.09;5008066;28;20085;-73
2022/01/23 12:41:21;;;;;;;34.00;20.27;;;;;;;-145.18;100.00;46894.81;5009229;28;20270;-73
2022/01/23 12:43:46;;;;;;;31.83;19.93;;;;;;;-145.18;100.00;46929.97;5008582;28;20268;-74
2022/01/23 12:46:23;;;;;;;32.53;19.57;;;;;;;-145.18;100.00;46883.09;5009071;28;20282;-73
2022/01/23 12:48:49;;;;;;;32.33;19.90;;;;;;;-145.18;100.00;46902.63;5008479;28;20034;-73
2022/01/23 12:51:17;;;;;;;28.40;17.93;;;;;;;-145.18;100.00;46875.28;5007986;28;20830;-73
2022/01/23 12:53:46;;;;;;;30.23;18.33;;;;;;;-145.18;100.00;46920.19;5008293;28;20306;-74
2022/01/23 12:56:41;;;;;;;28.97;18.60;;;;;;;-145.18;100.00;47047.19;5008559;28;20802;-73
2022/01/23 12:59:10;;;;;;;34.67;18.23;;;;;;;-145.18;100.00;47064.75;5008488;28;20350;-73
2022/01/23 13:01:37;;;;;;;30.40;17.63;;;;;;;-145.18;100.00;47176.09;5008648;28;20267;-73
2022/01/23 13:04:05;;;;;;;31.03;20.80;;;;;;;-145.18;100.00;47094.06;5008320;28;20294;-73
2022/01/23 13:06:34;;;;;;;52.83;29.43;;;;;;;-145.18;100.00;47031.53;5008626;28;20656;-74
2022/01/23 13:09:24;;;;;;;33.60;19.57;;;;;;;-145.18;100.00;46980.75;5008156;28;20754;-73
2022/01/23 13:11:55;;;;;;;32.03;18.50;;;;;;;-145.18;100.00;46926.06;5007343;28;20252;-73
2022/01/23 13:14:27;;;;;;;32.40;18.87;;;;;;;-145.18;100.00;46935.81;5007953;28;20756;-73
2022/01/23 13:30:15;;;;;;;31.77;18.37;;;;;;;-145.18;100.00;46826.44;4987713;28;20366;-73
2022/01/23 13:35:12;;;;;;;35.43;19.17;;;;;;;-145.18;100.00;46804.94;5004846;28;20656;-73
2022/01/23 13:37:57;;;;;;;34.60;19.43;;;;;;;-145.18;100.00;46810.81;5007751;28;21002;-73
2022/01/23 13:40:29;;;;;;;32.17;17.33;;;;;;;-145.18;100.00;46842.06;5001902;28;20266;-73
2022/01/23 13:48:56;;;;;;;29.13;18.00;;;;;;;-145.18;100.00;46871.38;4997326;28;20918;-73
2022/01/23 14:04:19;;;;;;;33.77;20.17;;;;;;;-145.18;100.00;46863.53;5007078;28;20411;-73
2022/01/23 14:06:46;;;;;;;33.70;18.87;;;;;;;-145.18;100.00;46875.28;5007675;28;20548;-73
2022/01/23 14:09:13;;;;;;;30.50;18.57;;;;;;;-145.18;100.00;46863.53;5007739;28;20287;-74
2022/01/23 14:11:40;;;;;;;31.80;18.17;;;;;;;-145.18;100.00;46871.38;5007546;28;20283;-73
2022/01/23 14:14:14;;;;;;;29.03;18.13;;;;;;;-145.18;100.00;46834.25;5007117;28;20664;-74
2022/01/23 14:16:40;;;;;;;30.43;19.07;;;;;;;-145.18;100.00;46873.31;5007537;28;20291;-73
2022/01/23 14:19:17;;;;;;;30.13;17.83;;;;;;;-145.18;100.00;46863.53;5007464;28;20271;-74
2022/01/23 14:21:45;;;;;;;38.63;20.10;;;;;;;-145.18;100.00;46869.41;5003707;28;20440;-73
2022/01/23 14:24:11;;;;;;;35.90;18.27;;;;;;;-145.18;100.00;46885.03;5003865;28;20272;-73
2022/01/23 14:26:37;;;;;;;30.07;17.47;;;;;;;-145.18;100.00;46873.31;5006379;28;20275;-73
2022/01/23 14:29:06;;;;;;;30.63;17.57;;;;;;;-145.18;100.00;46863.53;5006523;28;20065;-74
2022/01/23 14:31:40;;;;;;;35.60;19.63;;;;;;;-145.18;100.00;46842.06;5007410;28;20139;-74
2022/01/23 14:34:23;;;;;;;34.23;19.27;;;;;;;-145.18;100.00;46828.38;5006016;28;20279;-73
2022/01/23 14:36:56;;;;;;;38.77;20.47;;;;;;;-145.18;100.00;46842.06;5006795;28;20275;-73